KSSF/SSF METAR and TAF weather

Enter ICAO airport designator
Station Type Date Time Source
KSSF METAR 2020/11/28 19:53 UTC NOAA

KSSF 281953Z 02005KT 5SM -RA BR OVC005 15/15 A3000 RMK AO2 SLP155 P0013 T01500150 $


Station Type Date Time Source
KSSF Decoded METAR 2020/11/28 19:53 UTC NOAA

SAN ANTONIO STINSON MUNI, TX, United States (KSSF) 29-20N 098-28W 176M
Nov 28, 2020 - 02:53 PM EST / 2020.11.28 1953 UTC
Wind: from the NNE (020 degrees) at 6 MPH (5 KT):0
Visibility: 5 mile(s):0
Sky conditions: overcast
Weather: light rain; mist
Precipitation last hour: 0.13 inches
Temperature: 59.0 F (15.0 C)
Dew Point: 59.0 F (15.0 C)
Relative Humidity: 100%
Pressure (altimeter): 30 in. Hg (1015 hPa)
ob: KSSF 281953Z 02005KT 5SM -RA BR OVC005 15/15 A3000 RMK AO2 SLP155 P0013 T01500150
cycle: 20

Station Type Date Time Source
KSSF TAF 2020/11/28 18:24 UTC NOAA

TAF KSSF 281723Z 2818/2918 03007KT 5SM -RA VCTS OVC007CB
TEMPO 2819/2823 2SM RA BR OVC004
FM290700 36009KT 6SM BR VCSH BKN015
FM291000 35007KT P6SM SCT025
FM291500 34010KT P6SM SKC

Example: see airport list